sensor_id;sensor_type;location;lat;lon;timestamp;pressure;altitude;pressure_sealevel;temperature;humidity
15382;BME280;7789;51.364;12.358;2023-07-28T00:01:33;99189.19;;;19.29;100.00
15382;BME280;7789;51.364;12.358;2023-07-28T00:06:44;99184.50;;;19.31;100.00
15382;BME280;7789;51.364;12.358;2023-07-28T00:11:57;99192.84;;;19.34;100.00
15382;BME280;7789;51.364;12.358;2023-07-28T00:17:29;99187.72;;;19.39;100.00
15382;BME280;7789;51.364;12.358;2023-07-28T00:22:43;99187.72;;;19.39;100.00
15382;BME280;7789;51.364;12.358;2023-07-28T00:27:54;99183.00;;;19.41;100.00
15382;BME280;7789;51.364;12.358;2023-07-28T00:33:07;99166.09;;;19.42;100.00
15382;BME280;7789;51.364;12.358;2023-07-28T00:38:16;99167.94;;;19.42;100.00
15382;BME280;7789;51.364;12.358;2023-07-28T00:43:42;99179.94;;;19.44;100.00
15382;BME280;7789;51.364;12.358;2023-07-28T00:48:49;99180.34;;;19.48;100.00
15382;BME280;7789;51.364;12.358;2023-07-28T00:54:11;99173.59;;;19.52;100.00
15382;BME280;7789;51.364;12.358;2023-07-28T00:59:39;99168.28;;;19.52;100.00
15382;BME280;7789;51.364;12.358;2023-07-28T01:05:03;99168.50;;;19.50;100.00
15382;BME280;7789;51.364;12.358;2023-07-28T01:10:34;99160.31;;;19.52;100.00
15382;BME280;7789;51.364;12.358;2023-07-28T01:15:49;99153.41;;;19.51;100.00
15382;BME280;7789;51.364;12.358;2023-07-28T01:21:42;99156.44;;;19.54;100.00
15382;BME280;7789;51.364;12.358;2023-07-28T01:26:59;99153.56;;;19.56;100.00
15382;BME280;7789;51.364;12.358;2023-07-28T01:32:13;99152.78;;;19.55;100.00
15382;BME280;7789;51.364;12.358;2023-07-28T01:37:23;99153.78;;;19.54;100.00
15382;BME280;7789;51.364;12.358;2023-07-28T01:42:56;99150.53;;;19.52;100.00
15382;BME280;7789;51.364;12.358;2023-07-28T01:48:03;99156.44;;;19.54;100.00
15382;BME280;7789;51.364;12.358;2023-07-28T01:53:13;99150.72;;;19.57;100.00
15382;BME280;7789;51.364;12.358;2023-07-28T01:58:36;99151.72;;;19.63;100.00
15382;BME280;7789;51.364;12.358;2023-07-28T02:03:50;99156.78;;;19.64;100.00
15382;BME280;7789;51.364;12.358;2023-07-28T02:09:00;99158.22;;;19.67;100.00
15382;BME280;7789;51.364;12.358;2023-07-28T02:14:10;99152.09;;;19.66;100.00
15382;BME280;7789;51.364;12.358;2023-07-28T02:19:21;99142.09;;;19.68;100.00
15382;BME280;7789;51.364;12.358;2023-07-28T02:24:31;99149.84;;;19.63;100.00
15382;BME280;7789;51.364;12.358;2023-07-28T02:29:44;99154.13;;;19.64;100.00
15382;BME280;7789;51.364;12.358;2023-07-28T02:34:59;99148.81;;;19.64;100.00
15382;BME280;7789;51.364;12.358;2023-07-28T02:40:07;99157.59;;;19.65;100.00
15382;BME280;7789;51.364;12.358;2023-07-28T02:45:20;99159.22;;;19.66;100.00
15382;BME280;7789;51.364;12.358;2023-07-28T02:50:28;99155.56;;;19.67;100.00
15382;BME280;7789;51.364;12.358;2023-07-28T02:55:41;99148.44;;;19.67;100.00
15382;BME280;7789;51.364;12.358;2023-07-28T03:00:54;99150.25;;;19.67;100.00
15382;BME280;7789;51.364;12.358;2023-07-28T03:06:03;99167.59;;;19.69;100.00
15382;BME280;7789;51.364;12.358;2023-07-28T03:11:13;99175.13;;;19.72;100.00
15382;BME280;7789;51.364;12.358;2023-07-28T03:16:30;99173.50;;;19.71;100.00
15382;BME280;7789;51.364;12.358;2023-07-28T03:21:47;99180.84;;;19.69;100.00
15382;BME280;7789;51.364;12.358;2023-07-28T03:27:12;99179.00;;;19.70;100.00
15382;BME280;7789;51.364;12.358;2023-07-28T03:32:35;99177.38;;;19.69;100.00
15382;BME280;7789;51.364;12.358;2023-07-28T03:37:50;99194.13;;;19.69;100.00
15382;BME280;7789;51.364;12.358;2023-07-28T03:42:59;99194.91;;;19.70;100.00
15382;BME280;7789;51.364;12.358;2023-07-28T03:48:24;99191.03;;;19.72;100.00
15382;BME280;7789;51.364;12.358;2023-07-28T03:53:30;99185.94;;;19.71;100.00
15382;BME280;7789;51.364;12.358;2023-07-28T03:58:41;99183.28;;;19.71;100.00
15382;BME280;7789;51.364;12.358;2023-07-28T04:03:52;99181.00;;;19.74;100.00
15382;BME280;7789;51.364;12.358;2023-07-28T04:08:59;99178.16;;;19.76;100.00
15382;BME280;7789;51.364;12.358;2023-07-28T04:14:11;99177.53;;;19.74;100.00
15382;BME280;7789;51.364;12.358;2023-07-28T04:19:31;99185.28;;;19.75;100.00
15382;BME280;7789;51.364;12.358;2023-07-28T04:24:44;99175.72;;;19.74;100.00
15382;BME280;7789;51.364;12.358;2023-07-28T04:30:00;99186.91;;;19.76;100.00
15382;BME280;7789;51.364;12.358;2023-07-28T04:35:13;99179.38;;;19.73;100.00
15382;BME280;7789;51.364;12.358;2023-07-28T04:40:23;99185.31;;;19.69;100.00
15382;BME280;7789;51.364;12.358;2023-07-28T04:45:33;99179.03;;;19.63;100.00
15382;BME280;7789;51.364;12.358;2023-07-28T04:50:51;99185.31;;;19.69;100.00
15382;BME280;7789;51.364;12.358;2023-07-28T04:55:55;99188.16;;;19.74;100.00
15382;BME280;7789;51.364;12.358;2023-07-28T05:01:13;99181.78;;;19.81;100.00
15382;BME280;7789;51.364;12.358;2023-07-28T05:06:21;99196.88;;;19.87;100.00
15382;BME280;7789;51.364;12.358;2023-07-28T05:11:26;99210.50;;;19.91;100.00
15382;BME280;7789;51.364;12.358;2023-07-28T05:16:32;99210.09;;;19.94;100.00
15382;BME280;7789;51.364;12.358;2023-07-28T05:21:47;99218.41;;;19.97;100.00
15382;BME280;7789;51.364;12.358;2023-07-28T05:26:56;99218.41;;;20.04;100.00
15382;BME280;7789;51.364;12.358;2023-07-28T05:32:01;99219.59;;;20.08;100.00
15382;BME280;7789;51.364;12.358;2023-07-28T05:37:19;99239.78;;;20.15;100.00
15382;BME280;7789;51.364;12.358;2023-07-28T05:42:41;99240.97;;;20.26;100.00
15382;BME280;7789;51.364;12.358;2023-07-28T05:47:48;99242.69;;;20.38;100.00
15382;BME280;7789;51.364;12.358;2023-07-28T05:52:54;99259.94;;;20.54;100.00
15382;BME280;7789;51.364;12.358;2023-07-28T05:58:07;99255.84;;;20.51;100.00
15382;BME280;7789;51.364;12.358;2023-07-28T06:03:13;99265.47;;;20.52;100.00
15382;BME280;7789;51.364;12.358;2023-07-28T06:08:21;99270.31;;;20.62;100.00
15382;BME280;7789;51.364;12.358;2023-07-28T06:13:28;99264.31;;;20.66;100.00
15382;BME280;7789;51.364;12.358;2023-07-28T06:18:34;99269.38;;;20.74;100.00
15382;BME280;7789;51.364;12.358;2023-07-28T06:23:48;99269.75;;;21.02;100.00
15382;BME280;7789;51.364;12.358;2023-07-28T06:28:52;99272.88;;;21.17;100.00
15382;BME280;7789;51.364;12.358;2023-07-28T06:34:00;99283.25;;;21.25;100.00
15382;BME280;7789;51.364;12.358;2023-07-28T06:39:06;99294.84;;;21.73;100.00
15382;BME280;7789;51.364;12.358;2023-07-28T06:44:12;99298.88;;;21.75;100.00
15382;BME280;7789;51.364;12.358;2023-07-28T06:49:17;99303.84;;;21.90;100.00
15382;BME280;7789;51.364;12.358;2023-07-28T06:54:23;99294.94;;;22.43;100.00
15382;BME280;7789;51.364;12.358;2023-07-28T06:59:28;99303.66;;;22.50;100.00
15382;BME280;7789;51.364;12.358;2023-07-28T07:04:36;99309.94;;;22.38;100.00
15382;BME280;7789;51.364;12.358;2023-07-28T07:09:43;99308.75;;;22.63;100.00
15382;BME280;7789;51.364;12.358;2023-07-28T07:14:54;99301.44;;;23.22;100.00
15382;BME280;7789;51.364;12.358;2023-07-28T07:19:58;99299.22;;;23.54;100.00
15382;BME280;7789;51.364;12.358;2023-07-28T07:25:08;99296.59;;;23.82;100.00
15382;BME280;7789;51.364;12.358;2023-07-28T07:30:15;99301.00;;;23.99;100.00
15382;BME280;7789;51.364;12.358;2023-07-28T07:35:24;99293.56;;;24.01;100.00
15382;BME280;7789;51.364;12.358;2023-07-28T07:40:30;99305.13;;;24.18;100.00
15382;BME280;7789;51.364;12.358;2023-07-28T07:45:37;99294.66;;;24.73;100.00
15382;BME280;7789;51.364;12.358;2023-07-28T07:50:42;99295.75;;;24.93;100.00
15382;BME280;7789;51.364;12.358;2023-07-28T07:55:48;99300.25;;;25.20;100.00
15382;BME280;7789;51.364;12.358;2023-07-28T08:00:55;99318.56;;;25.12;98.05
15382;BME280;7789;51.364;12.358;2023-07-28T08:06:13;99318.91;;;25.32;96.29
15382;BME280;7789;51.364;12.358;2023-07-28T08:11:18;99331.28;;;25.38;95.28
15382;BME280;7789;51.364;12.358;2023-07-28T08:16:28;99327.16;;;25.47;92.63
15382;BME280;7789;51.364;12.358;2023-07-28T08:21:39;99336.81;;;25.69;92.42
15382;BME280;7789;51.364;12.358;2023-07-28T08:26:48;99344.78;;;25.64;88.93
15382;BME280;7789;51.364;12.358;2023-07-28T08:32:08;99351.34;;;25.73;88.00
15382;BME280;7789;51.364;12.358;2023-07-28T08:37:15;99355.94;;;25.78;89.82
15382;BME280;7789;51.364;12.358;2023-07-28T08:42:25;99360.84;;;25.81;89.06
15382;BME280;7789;51.364;12.358;2023-07-28T08:47:34;99355.22;;;25.82;87.72
15382;BME280;7789;51.364;12.358;2023-07-28T08:52:49;99360.84;;;26.02;87.79
15382;BME280;7789;51.364;12.358;2023-07-28T08:58:20;99357.56;;;26.17;86.45
15382;BME280;7789;51.364;12.358;2023-07-28T09:03:28;99368.78;;;26.14;85.68
15382;BME280;7789;51.364;12.358;2023-07-28T09:08:37;99365.78;;;26.32;81.42
15382;BME280;7789;51.364;12.358;2023-07-28T09:13:53;99372.97;;;26.26;82.49
15382;BME280;7789;51.364;12.358;2023-07-28T09:19:09;99371.19;;;26.37;81.64
15382;BME280;7789;51.364;12.358;2023-07-28T09:24:28;99367.66;;;26.31;81.99
15382;BME280;7789;51.364;12.358;2023-07-28T09:29:48;99371.06;;;26.27;79.55
15382;BME280;7789;51.364;12.358;2023-07-28T09:35:09;99385.66;;;26.36;81.34
15382;BME280;7789;51.364;12.358;2023-07-28T09:40:20;99372.56;;;26.39;80.74
15382;BME280;7789;51.364;12.358;2023-07-28T09:45:37;99393.13;;;26.55;78.16
15382;BME280;7789;51.364;12.358;2023-07-28T09:50:48;99386.66;;;26.51;80.19
15382;BME280;7789;51.364;12.358;2023-07-28T09:55:58;99395.81;;;26.55;79.16
15382;BME280;7789;51.364;12.358;2023-07-28T10:01:13;99394.69;;;26.30;77.92
15382;BME280;7789;51.364;12.358;2023-07-28T10:06:30;99395.94;;;26.44;80.26
15382;BME280;7789;51.364;12.358;2023-07-28T10:11:38;99405.88;;;26.65;79.96
15382;BME280;7789;51.364;12.358;2023-07-28T10:16:49;99395.63;;;26.62;78.20
15382;BME280;7789;51.364;12.358;2023-07-28T10:21:59;99396.59;;;26.51;77.40
15382;BME280;7789;51.364;12.358;2023-07-28T10:27:06;99407.56;;;26.49;77.47
15382;BME280;7789;51.364;12.358;2023-07-28T10:32:25;99402.88;;;26.61;77.52
15382;BME280;7789;51.364;12.358;2023-07-28T10:37:31;99415.84;;;26.69;78.67
15382;BME280;7789;51.364;12.358;2023-07-28T10:42:47;99415.47;;;26.87;78.97
15382;BME280;7789;51.364;12.358;2023-07-28T10:48:00;99424.16;;;26.94;76.43
15382;BME280;7789;51.364;12.358;2023-07-28T10:53:11;99410.03;;;27.03;74.19
15382;BME280;7789;51.364;12.358;2023-07-28T10:58:19;99416.31;;;27.14;75.09
15382;BME280;7789;51.364;12.358;2023-07-28T11:03:31;99423.41;;;26.98;74.55
15382;BME280;7789;51.364;12.358;2023-07-28T11:08:44;99429.88;;;26.76;73.90
15382;BME280;7789;51.364;12.358;2023-07-28T11:13:49;99423.09;;;26.69;76.50
15382;BME280;7789;51.364;12.358;2023-07-28T11:19:03;99413.06;;;26.59;75.24
15382;BME280;7789;51.364;12.358;2023-07-28T11:24:18;99417.44;;;26.70;76.17
15382;BME280;7789;51.364;12.358;2023-07-28T11:29:23;99409.75;;;26.78;75.65
15382;BME280;7789;51.364;12.358;2023-07-28T11:34:37;99417.06;;;26.83;76.17
15382;BME280;7789;51.364;12.358;2023-07-28T11:39:45;99418.94;;;27.09;75.17
15382;BME280;7789;51.364;12.358;2023-07-28T11:44:51;99411.59;;;27.26;75.49
15382;BME280;7789;51.364;12.358;2023-07-28T11:49:56;99411.13;;;27.39;77.69
15382;BME280;7789;51.364;12.358;2023-07-28T11:55:03;99411.66;;;27.36;75.68
15382;BME280;7789;51.364;12.358;2023-07-28T12:00:12;99416.97;;;27.26;74.72
15382;BME280;7789;51.364;12.358;2023-07-28T12:05:24;99421.44;;;27.15;76.37
15382;BME280;7789;51.364;12.358;2023-07-28T12:10:50;99430.53;;;27.14;76.16
15382;BME280;7789;51.364;12.358;2023-07-28T12:16:04;99429.44;;;27.10;76.30
15382;BME280;7789;51.364;12.358;2023-07-28T12:21:17;99426.47;;;27.38;74.69
15382;BME280;7789;51.364;12.358;2023-07-28T12:26:32;99420.88;;;27.45;72.96
15382;BME280;7789;51.364;12.358;2023-07-28T12:31:41;99429.06;;;27.60;71.67
15382;BME280;7789;51.364;12.358;2023-07-28T12:36:53;99422.44;;;27.72;71.36
15382;BME280;7789;51.364;12.358;2023-07-28T12:42:03;99427.09;;;27.87;70.35
15382;BME280;7789;51.364;12.358;2023-07-28T12:47:23;99434.00;;;27.73;70.09
15382;BME280;7789;51.364;12.358;2023-07-28T12:52:31;99431.75;;;27.60;69.88
15382;BME280;7789;51.364;12.358;2023-07-28T12:57:40;99435.38;;;27.80;69.99
15382;BME280;7789;51.364;12.358;2023-07-28T13:02:47;99435.66;;;27.79;68.10
15382;BME280;7789;51.364;12.358;2023-07-28T13:07:54;99438.19;;;27.59;68.29
15382;BME280;7789;51.364;12.358;2023-07-28T13:13:03;99435.75;;;27.57;69.91
15382;BME280;7789;51.364;12.358;2023-07-28T13:18:15;99430.38;;;27.57;68.04
15382;BME280;7789;51.364;12.358;2023-07-28T13:23:24;99436.03;;;27.61;67.37
15382;BME280;7789;51.364;12.358;2023-07-28T13:28:32;99435.88;;;27.72;67.43
15382;BME280;7789;51.364;12.358;2023-07-28T13:33:51;99426.00;;;27.83;67.91
15382;BME280;7789;51.364;12.358;2023-07-28T13:39:10;99426.50;;;27.75;66.87
15382;BME280;7789;51.364;12.358;2023-07-28T13:44:15;99441.31;;;27.82;65.66
15382;BME280;7789;51.364;12.358;2023-07-28T13:49:21;99426.31;;;27.86;65.98
15382;BME280;7789;51.364;12.358;2023-07-28T13:54:32;99418.69;;;27.73;63.57
15382;BME280;7789;51.364;12.358;2023-07-28T14:00:00;99421.72;;;27.87;64.70
15382;BME280;7789;51.364;12.358;2023-07-28T14:05:12;99420.38;;;27.84;63.43
15382;BME280;7789;51.364;12.358;2023-07-28T14:10:18;99418.25;;;27.86;63.23
15382;BME280;7789;51.364;12.358;2023-07-28T14:15:27;99434.16;;;27.93;63.19
15382;BME280;7789;51.364;12.358;2023-07-28T14:20:36;99430.59;;;27.87;60.91
15382;BME280;7789;51.364;12.358;2023-07-28T14:25:42;99434.38;;;27.86;60.49
15382;BME280;7789;51.364;12.358;2023-07-28T14:30:47;99437.06;;;27.91;60.28
15382;BME280;7789;51.364;12.358;2023-07-28T14:35:54;99425.81;;;27.99;60.58
15382;BME280;7789;51.364;12.358;2023-07-28T14:40:58;99420.19;;;28.01;60.57
15382;BME280;7789;51.364;12.358;2023-07-28T14:46:02;99426.91;;;27.98;61.32
15382;BME280;7789;51.364;12.358;2023-07-28T14:51:06;99429.84;;;27.97;60.95
15382;BME280;7789;51.364;12.358;2023-07-28T14:56:11;99424.72;;;27.95;61.92
15382;BME280;7789;51.364;12.358;2023-07-28T15:01:14;99416.66;;;27.95;61.59
15382;BME280;7789;51.364;12.358;2023-07-28T15:06:18;99428.50;;;27.99;59.87
15382;BME280;7789;51.364;12.358;2023-07-28T15:11:23;99424.47;;;27.97;59.06
15382;BME280;7789;51.364;12.358;2023-07-28T15:16:29;99422.09;;;28.00;60.02
15382;BME280;7789;51.364;12.358;2023-07-28T15:21:32;99427.22;;;28.07;58.49
15382;BME280;7789;51.364;12.358;2023-07-28T15:26:38;99414.84;;;28.06;59.37
15382;BME280;7789;51.364;12.358;2023-07-28T15:31:42;99429.03;;;27.96;59.87
15382;BME280;7789;51.364;12.358;2023-07-28T15:36:52;99428.72;;;27.88;60.18
15382;BME280;7789;51.364;12.358;2023-07-28T15:42:02;99430.53;;;27.77;60.50
15382;BME280;7789;51.364;12.358;2023-07-28T15:47:06;99428.63;;;27.73;60.89
15382;BME280;7789;51.364;12.358;2023-07-28T15:52:12;99432.88;;;27.69;61.50
15382;BME280;7789;51.364;12.358;2023-07-28T15:57:20;99439.59;;;27.66;61.99
15382;BME280;7789;51.364;12.358;2023-07-28T16:02:26;99435.31;;;27.70;63.50
15382;BME280;7789;51.364;12.358;2023-07-28T16:07:30;99440.69;;;27.70;63.81
15382;BME280;7789;51.364;12.358;2023-07-28T16:12:36;99445.50;;;27.68;61.76
15382;BME280;7789;51.364;12.358;2023-07-28T16:17:39;99447.06;;;27.64;61.02
15382;BME280;7789;51.364;12.358;2023-07-28T16:22:43;99453.47;;;27.58;62.49
15382;BME280;7789;51.364;12.358;2023-07-28T16:27:49;99448.63;;;27.55;61.26
15382;BME280;7789;51.364;12.358;2023-07-28T16:32:53;99456.94;;;27.54;62.13
15382;BME280;7789;51.364;12.358;2023-07-28T16:37:57;99461.72;;;27.47;62.53
15382;BME280;7789;51.364;12.358;2023-07-28T16:43:02;99456.81;;;27.39;61.99
15382;BME280;7789;51.364;12.358;2023-07-28T16:48:06;99452.72;;;27.31;63.49
15382;BME280;7789;51.364;12.358;2023-07-28T16:53:10;99455.03;;;27.23;63.96
15382;BME280;7789;51.364;12.358;2023-07-28T16:58:16;99448.28;;;27.15;64.81
15382;BME280;7789;51.364;12.358;2023-07-28T17:03:20;99462.09;;;27.02;66.37
15382;BME280;7789;51.364;12.358;2023-07-28T17:08:25;99465.53;;;26.98;66.65
15382;BME280;7789;51.364;12.358;2023-07-28T17:13:32;99466.75;;;26.85;67.97
15382;BME280;7789;51.364;12.358;2023-07-28T17:18:36;99467.69;;;26.74;67.63
15382;BME280;7789;51.364;12.358;2023-07-28T17:23:40;99462.22;;;26.65;67.35
15382;BME280;7789;51.364;12.358;2023-07-28T17:28:45;99465.66;;;26.60;67.91
15382;BME280;7789;51.364;12.358;2023-07-28T17:33:50;99477.94;;;26.56;67.82
15382;BME280;7789;51.364;12.358;2023-07-28T17:38:54;99473.31;;;26.52;69.21
15382;BME280;7789;51.364;12.358;2023-07-28T17:43:59;99479.56;;;26.41;69.98
15382;BME280;7789;51.364;12.358;2023-07-28T17:49:04;99477.06;;;26.34;69.73
15382;BME280;7789;51.364;12.358;2023-07-28T17:54:08;99478.00;;;26.23;69.92
15382;BME280;7789;51.364;12.358;2023-07-28T17:59:13;99483.56;;;26.17;70.53
15382;BME280;7789;51.364;12.358;2023-07-28T18:04:17;99486.13;;;26.12;71.26
15382;BME280;7789;51.364;12.358;2023-07-28T18:09:22;99482.00;;;26.04;71.17
15382;BME280;7789;51.364;12.358;2023-07-28T18:14:28;99484.63;;;25.99;71.81
15382;BME280;7789;51.364;12.358;2023-07-28T18:19:31;99484.78;;;25.93;72.67
15382;BME280;7789;51.364;12.358;2023-07-28T18:24:35;99481.38;;;25.81;72.93
15382;BME280;7789;51.364;12.358;2023-07-28T18:29:46;99499.41;;;25.69;73.54
15382;BME280;7789;51.364;12.358;2023-07-28T18:34:49;99504.59;;;25.59;73.97
15382;BME280;7789;51.364;12.358;2023-07-28T18:39:53;99506.53;;;25.47;74.59
15382;BME280;7789;51.364;12.358;2023-07-28T18:44:59;99513.00;;;25.34;76.47
15382;BME280;7789;51.364;12.358;2023-07-28T18:50:05;99509.09;;;25.25;76.46
15382;BME280;7789;51.364;12.358;2023-07-28T18:55:09;99520.63;;;25.14;77.28
15382;BME280;7789;51.364;12.358;2023-07-28T19:00:14;99513.22;;;25.05;78.30
15382;BME280;7789;51.364;12.358;2023-07-28T19:05:18;99533.41;;;24.96;79.31
15382;BME280;7789;51.364;12.358;2023-07-28T19:10:21;99534.03;;;24.86;80.05
15382;BME280;7789;51.364;12.358;2023-07-28T19:15:26;99535.78;;;24.81;80.34
15382;BME280;7789;51.364;12.358;2023-07-28T19:20:47;99545.47;;;24.71;81.13
15382;BME280;7789;51.364;12.358;2023-07-28T19:25:51;99548.13;;;24.59;81.99
15382;BME280;7789;51.364;12.358;2023-07-28T19:30:55;99559.38;;;24.50;83.32
15382;BME280;7789;51.364;12.358;2023-07-28T19:36:02;99553.25;;;24.38;84.46
15382;BME280;7789;51.364;12.358;2023-07-28T19:41:06;99558.38;;;24.28;84.85
15382;BME280;7789;51.364;12.358;2023-07-28T19:46:15;99561.41;;;24.20;86.33
15382;BME280;7789;51.364;12.358;2023-07-28T19:51:24;99573.47;;;24.11;86.80
15382;BME280;7789;51.364;12.358;2023-07-28T19:56:27;99571.25;;;24.08;88.02
15382;BME280;7789;51.364;12.358;2023-07-28T20:01:34;99570.91;;;24.04;89.34
15382;BME280;7789;51.364;12.358;2023-07-28T20:06:38;99576.50;;;24.03;89.80
15382;BME280;7789;51.364;12.358;2023-07-28T20:11:42;99575.31;;;23.99;90.38
15382;BME280;7789;51.364;12.358;2023-07-28T20:16:49;99568.69;;;23.90;91.46
15382;BME280;7789;51.364;12.358;2023-07-28T20:21:52;99580.88;;;23.86;91.90
15382;BME280;7789;51.364;12.358;2023-07-28T20:26:56;99578.75;;;23.76;92.67
15382;BME280;7789;51.364;12.358;2023-07-28T20:32:01;99588.22;;;23.72;93.17
15382;BME280;7789;51.364;12.358;2023-07-28T20:37:04;99590.56;;;23.69;93.21
15382;BME280;7789;51.364;12.358;2023-07-28T20:42:08;99590.66;;;23.62;93.69
15382;BME280;7789;51.364;12.358;2023-07-28T20:47:13;99583.53;;;23.56;95.20
15382;BME280;7789;51.364;12.358;2023-07-28T20:52:16;99587.13;;;23.50;96.65
15382;BME280;7789;51.364;12.358;2023-07-28T20:57:20;99586.56;;;23.48;98.14
15382;BME280;7789;51.364;12.358;2023-07-28T21:02:25;99582.13;;;23.42;99.48
15382;BME280;7789;51.364;12.358;2023-07-28T21:07:29;99589.78;;;23.39;100.00
15382;BME280;7789;51.364;12.358;2023-07-28T21:12:33;99581.63;;;23.34;100.00
15382;BME280;7789;51.364;12.358;2023-07-28T21:17:38;99592.72;;;23.31;100.00
15382;BME280;7789;51.364;12.358;2023-07-28T21:22:44;99597.16;;;23.25;100.00
15382;BME280;7789;51.364;12.358;2023-07-28T21:27:47;99602.69;;;23.24;100.00
15382;BME280;7789;51.364;12.358;2023-07-28T21:32:57;99599.66;;;23.20;100.00
15382;BME280;7789;51.364;12.358;2023-07-28T21:38:01;99616.34;;;23.16;100.00
15382;BME280;7789;51.364;12.358;2023-07-28T21:43:06;99612.69;;;23.10;100.00
15382;BME280;7789;51.364;12.358;2023-07-28T21:48:11;99625.66;;;23.07;100.00
15382;BME280;7789;51.364;12.358;2023-07-28T21:53:14;99624.56;;;22.96;100.00
15382;BME280;7789;51.364;12.358;2023-07-28T21:58:18;99639.00;;;22.89;100.00
15382;BME280;7789;51.364;12.358;2023-07-28T22:03:23;99632.69;;;22.83;100.00
15382;BME280;7789;51.364;12.358;2023-07-28T22:08:26;99633.78;;;22.76;100.00
15382;BME280;7789;51.364;12.358;2023-07-28T22:13:33;99641.84;;;22.69;100.00
15382;BME280;7789;51.364;12.358;2023-07-28T22:18:44;99642.97;;;22.62;100.00
15382;BME280;7789;51.364;12.358;2023-07-28T22:24:15;99645.09;;;22.54;100.00
15382;BME280;7789;51.364;12.358;2023-07-28T22:29:23;99652.34;;;22.47;100.00
15382;BME280;7789;51.364;12.358;2023-07-28T22:34:27;99648.94;;;22.40;100.00
15382;BME280;7789;51.364;12.358;2023-07-28T22:39:31;99651.38;;;22.35;100.00
15382;BME280;7789;51.364;12.358;2023-07-28T22:44:35;99647.97;;;22.28;100.00
15382;BME280;7789;51.364;12.358;2023-07-28T22:49:41;99653.16;;;22.23;100.00
15382;BME280;7789;51.364;12.358;2023-07-28T22:54:45;99658.72;;;22.15;100.00
15382;BME280;7789;51.364;12.358;2023-07-28T22:59:52;99653.84;;;22.12;100.00
15382;BME280;7789;51.364;12.358;2023-07-28T23:05:00;99659.81;;;22.07;100.00
15382;BME280;7789;51.364;12.358;2023-07-28T23:10:04;99655.34;;;22.01;100.00
15382;BME280;7789;51.364;12.358;2023-07-28T23:15:08;99659.69;;;21.96;100.00
15382;BME280;7789;51.364;12.358;2023-07-28T23:20:14;99650.28;;;21.93;100.00
15382;BME280;7789;51.364;12.358;2023-07-28T23:25:17;99656.69;;;21.86;100.00
15382;BME280;7789;51.364;12.358;2023-07-28T23:30:21;99651.78;;;21.83;100.00
15382;BME280;7789;51.364;12.358;2023-07-28T23:35:27;99655.47;;;21.82;100.00
15382;BME280;7789;51.364;12.358;2023-07-28T23:40:31;99641.38;;;21.81;100.00
15382;BME280;7789;51.364;12.358;2023-07-28T23:45:34;99644.84;;;21.82;100.00
15382;BME280;7789;51.364;12.358;2023-07-28T23:50:40;99631.75;;;21.80;100.00
15382;BME280;7789;51.364;12.358;2023-07-28T23:55:43;99625.81;;;21.78;100.00
